Time;durP1;ratioP1;P1;durP2;ratioP2;P2;SDS_P1;SDS_P2;PMS_P1;PMS_P2;Temp;Humidity;BMP_temperature;BMP_pressure;BME280_temperature;BME280_humidity;BME280_pressure;Samples;Min_cycle;Max_cycle;Signal;HPM_P1;HPM_P2
2022/04/24 00:01:58;;;;;;;7.40;4.03;;;;;;;26.24;17.53;97261.31;5080881;28;20032;-86
2022/04/24 00:04:24;;;;;;;8.95;4.65;;;;;;;26.33;17.42;97257.69;5082233;28;20125;-86
2022/04/24 00:06:53;;;;;;;9.02;5.03;;;;;;;25.89;17.55;97259.97;5075949;28;20047;-86
2022/04/24 00:09:20;;;;;;;8.50;5.00;;;;;;;25.41;17.94;97256.69;5078051;28;20547;-86
2022/04/24 00:11:46;;;;;;;8.52;5.15;;;;;;;25.07;18.51;97259.66;5078619;28;20052;-86
2022/04/24 00:14:13;;;;;;;9.27;4.93;;;;;;;24.80;18.50;97244.69;5075319;28;20036;-86
2022/04/24 00:16:40;;;;;;;10.73;5.85;;;;;;;24.56;19.34;97252.78;5081115;28;20474;-86
2022/04/24 00:19:06;;;;;;;11.35;6.40;;;;;;;24.60;19.40;97236.56;5074405;28;20054;-86
2022/04/24 00:21:33;;;;;;;7.93;4.80;;;;;;;25.07;18.88;97237.19;5074040;28;20476;-86
2022/04/24 00:23:59;;;;;;;7.75;4.57;;;;;;;25.47;18.63;97233.63;5079762;28;20401;-86
2022/04/24 00:26:25;;;;;;;6.90;4.65;;;;;;;25.84;18.50;97232.47;5077957;28;20142;-86
2022/04/24 00:28:52;;;;;;;7.82;5.30;;;;;;;25.61;18.85;97230.22;5076527;28;20059;-86
2022/04/24 00:31:18;;;;;;;9.30;5.05;;;;;;;25.48;19.25;97233.19;5075152;28;20432;-86
2022/04/24 00:33:44;;;;;;;7.82;4.97;;;;;;;25.81;18.79;97222.16;5071893;28;20039;-85
2022/04/24 00:36:10;;;;;;;7.40;4.68;;;;;;;26.29;18.14;97224.09;5074816;28;20127;-85
2022/04/24 00:38:36;;;;;;;7.43;4.00;;;;;;;26.68;17.86;97225.13;5076210;28;20032;-86
2022/04/24 00:41:03;;;;;;;7.70;4.75;;;;;;;26.66;17.83;97219.97;5076539;28;20039;-86
2022/04/24 00:43:29;;;;;;;9.38;5.00;;;;;;;26.68;18.33;97211.06;5073266;28;20501;-87
2022/04/24 00:46:10;;;;;;;7.90;4.80;;;;;;;26.54;18.09;97215.31;5074107;28;20438;-86
2022/04/24 00:48:36;;;;;;;5.95;4.35;;;;;;;26.58;18.39;97209.53;5076113;28;20032;-86
2022/04/24 00:51:02;;;;;;;8.40;5.28;;;;;;;26.37;18.49;97202.81;5073021;28;20039;-86
2022/04/24 00:53:28;;;;;;;7.25;5.03;;;;;;;26.11;19.09;97201.59;5076030;28;20498;-86
2022/04/24 00:55:56;;;;;;;6.80;4.20;;;;;;;26.00;19.32;97201.22;5076199;28;20054;-85
2022/04/24 00:58:22;;;;;;;7.63;4.95;;;;;;;26.16;19.14;97200.19;5077637;28;20119;-86
2022/04/24 01:00:48;;;;;;;7.32;4.53;;;;;;;26.32;18.63;97197.84;5075610;28;20040;-86
2022/04/24 01:03:15;;;;;;;10.52;5.22;;;;;;;26.56;18.69;97201.53;5078522;28;20028;-87
2022/04/24 01:05:41;;;;;;;7.72;4.80;;;;;;;26.88;18.48;97217.00;5074615;28;20028;-88
2022/04/24 01:08:07;;;;;;;8.13;4.93;;;;;;;27.10;18.29;97211.91;5072253;28;20823;-87
2022/04/24 01:10:40;;;;;;;9.18;5.40;;;;;;;26.58;18.92;97204.66;5074305;28;20023;-87
2022/04/24 01:13:07;;;;;;;8.10;4.45;;;;;;;26.27;19.25;97204.09;5075237;28;20032;-87
2022/04/24 01:15:33;;;;;;;10.88;5.40;;;;;;;26.19;19.24;97197.19;5078216;28;20036;-87
2022/04/24 01:18:00;;;;;;;9.35;5.50;;;;;;;26.23;19.08;97191.44;5078563;28;20123;-87
2022/04/24 01:20:27;;;;;;;6.57;5.03;;;;;;;26.24;19.14;97187.34;5077001;28;20183;-87
2022/04/24 01:22:53;;;;;;;9.48;5.03;;;;;;;26.46;19.13;97202.03;5076651;28;20549;-87
2022/04/24 01:25:19;;;;;;;6.30;4.45;;;;;;;26.82;18.69;97192.75;5070440;28;20033;-87
2022/04/24 01:27:45;;;;;;;8.80;5.13;;;;;;;26.88;18.46;97188.03;5077486;28;20555;-86
2022/04/24 01:30:12;;;;;;;6.30;5.07;;;;;;;26.53;19.00;97187.63;5073475;28;20029;-87
2022/04/24 01:32:39;;;;;;;10.32;5.40;;;;;;;26.16;19.61;97186.13;5075730;28;20572;-85
2022/04/24 01:35:07;;;;;;;7.85;5.38;;;;;;;26.15;19.42;97195.78;5074131;28;24078;-85
2022/04/24 01:37:33;;;;;;;11.88;5.95;;;;;;;25.94;19.72;97189.84;5073435;28;20032;-85
2022/04/24 01:40:00;;;;;;;10.68;5.80;;;;;;;25.47;20.59;97183.81;5074490;28;20028;-85
2022/04/24 01:42:26;;;;;;;10.45;5.97;;;;;;;25.39;20.32;97180.50;5072393;28;20436;-85
2022/04/24 01:44:52;;;;;;;8.38;4.85;;;;;;;25.82;20.23;97182.31;5072831;28;20115;-86
2022/04/24 01:47:18;;;;;;;10.25;6.13;;;;;;;26.53;19.38;97179.19;5070992;28;20509;-87
2022/04/24 01:49:44;;;;;;;8.68;5.18;;;;;;;27.07;18.62;97179.03;5075281;28;20040;-87
2022/04/24 01:52:11;;;;;;;9.10;5.43;;;;;;;27.28;18.42;97180.81;5077492;28;20179;-87
2022/04/24 01:54:37;;;;;;;10.18;5.35;;;;;;;27.56;18.10;97175.84;5069672;28;20501;-87
2022/04/24 01:57:03;;;;;;;8.23;5.05;;;;;;;27.81;17.76;97178.19;5074703;28;20550;-87
2022/04/24 01:59:29;;;;;;;10.10;5.05;;;;;;;28.12;17.50;97182.69;5078520;28;20032;-87
2022/04/24 02:01:55;;;;;;;10.23;5.50;;;;;;;28.14;17.24;97171.69;5076630;28;20047;-87
2022/04/24 02:04:26;;;;;;;11.43;6.63;;;;;;;27.17;18.32;97174.91;5074292;28;20135;-86
2022/04/24 02:06:52;;;;;;;11.00;6.27;;;;;;;26.48;19.26;97160.13;5077684;28;20089;-86
2022/04/24 02:09:18;;;;;;;9.05;5.65;;;;;;;26.16;19.44;97160.78;5073544;28;20124;-86
2022/04/24 02:11:44;;;;;;;12.45;5.38;;;;;;;26.32;19.66;97152.81;5074601;28;20048;-85
2022/04/24 02:14:10;;;;;;;9.55;5.68;;;;;;;26.58;19.13;97153.97;5074404;28;20066;-85
2022/04/24 02:16:36;;;;;;;7.55;4.85;;;;;;;26.80;18.82;97142.53;5071356;28;20033;-84
2022/04/24 02:19:02;;;;;;;10.65;6.15;;;;;;;26.51;19.15;97145.84;5068789;28;20129;-85
2022/04/24 02:21:29;;;;;;;7.38;4.93;;;;;;;26.39;19.59;97132.00;5080998;28;20061;-85
2022/04/24 02:23:55;;;;;;;8.95;5.63;;;;;;;26.30;19.69;97138.41;5071021;28;20082;-84
2022/04/24 02:26:21;;;;;;;9.90;5.28;;;;;;;26.62;19.12;97140.53;5087042;28;20099;-84
2022/04/24 02:28:47;;;;;;;9.48;5.88;;;;;;;26.60;19.09;97137.41;5072554;28;20098;-84
2022/04/24 02:31:13;;;;;;;7.57;5.30;;;;;;;26.81;19.22;97135.66;5072403;28;20502;-86
2022/04/24 02:33:40;;;;;;;7.70;4.22;;;;;;;27.30;18.26;97132.44;5078104;28;20031;-86
2022/04/24 02:36:06;;;;;;;6.80;4.10;;;;;;;27.75;18.01;97146.25;5068984;28;20035;-87
2022/04/24 02:38:32;;;;;;;7.75;4.70;;;;;;;28.16;17.46;97147.38;5069240;28;20044;-87
2022/04/24 02:40:58;;;;;;;7.65;3.95;;;;;;;28.36;17.26;97155.16;5073157;28;20044;-87
2022/04/24 02:43:24;;;;;;;7.68;5.07;;;;;;;27.27;18.13;97144.66;5075828;28;20024;-87
2022/04/24 02:45:50;;;;;;;7.40;4.45;;;;;;;26.53;19.12;97137.75;5072965;28;20130;-87
2022/04/24 02:48:17;;;;;;;6.97;4.38;;;;;;;26.47;19.11;97139.63;5073917;28;20056;-86
2022/04/24 02:50:43;;;;;;;8.25;4.90;;;;;;;26.65;19.04;97133.94;5072325;28;20081;-85
2022/04/24 02:53:10;;;;;;;7.70;4.68;;;;;;;26.63;18.92;97132.84;5076296;28;20047;-85
2022/04/24 02:55:36;;;;;;;8.38;5.05;;;;;;;26.36;19.01;97122.44;5074674;28;20108;-85
2022/04/24 02:58:02;;;;;;;11.57;5.03;;;;;;;26.13;19.81;97119.53;5073582;28;20036;-84
2022/04/24 03:00:39;;;;;;;9.48;5.68;;;;;;;26.03;19.95;97118.72;5073369;28;20028;-84
2022/04/24 03:03:09;;;;;;;10.23;5.50;;;;;;;25.79;20.12;97112.19;5071465;28;20041;-84
2022/04/24 03:05:36;;;;;;;7.45;5.35;;;;;;;25.90;19.67;97110.47;5071703;28;20037;-83
2022/04/24 03:08:02;;;;;;;7.28;4.95;;;;;;;26.22;19.44;97111.84;5069531;28;20036;-83
2022/04/24 03:10:29;;;;;;;8.63;5.47;;;;;;;26.41;19.44;97113.38;5072826;28;20504;-84
2022/04/24 03:12:55;;;;;;;8.63;5.05;;;;;;;26.58;19.06;97113.78;5076066;28;20032;-84
2022/04/24 03:15:21;;;;;;;7.35;5.38;;;;;;;26.57;19.12;97110.19;5074511;28;20114;-84
2022/04/24 03:17:49;;;;;;;10.25;5.78;;;;;;;26.42;19.00;97106.47;5073175;28;20485;-84
2022/04/24 03:20:15;;;;;;;11.57;6.40;;;;;;;26.23;19.41;97112.63;5075199;28;20032;-84
2022/04/24 03:22:41;;;;;;;10.07;5.78;;;;;;;26.26;19.34;97114.47;5080840;28;20036;-84
2022/04/24 03:25:09;;;;;;;7.88;5.65;;;;;;;26.19;19.28;97112.00;5080603;28;20116;-86
2022/04/24 03:27:35;;;;;;;8.77;4.53;;;;;;;26.47;19.33;97130.38;5072733;28;20521;-86
2022/04/24 03:30:03;;;;;;;6.80;5.10;;;;;;;26.76;18.62;97127.06;5078252;28;20032;-87
2022/04/24 03:32:33;;;;;;;10.10;6.32;;;;;;;26.64;18.61;97140.84;5077785;28;20115;-86
2022/04/24 03:35:00;;;;;;;9.18;6.05;;;;;;;25.91;19.66;97136.53;5078047;28;20044;-85
2022/04/24 03:37:26;;;;;;;9.18;5.28;;;;;;;25.75;20.18;97146.06;5077655;28;20104;-84
2022/04/24 03:39:52;;;;;;;6.70;5.10;;;;;;;25.85;20.04;97149.66;5073438;28;20048;-85
2022/04/24 03:42:18;;;;;;;8.93;5.47;;;;;;;25.25;20.69;97152.22;5075163;28;20032;-85
2022/04/24 03:44:44;;;;;;;7.28;4.47;;;;;;;25.55;20.89;97154.19;5074972;28;20039;-84
2022/04/24 03:47:10;;;;;;;7.30;5.05;;;;;;;26.51;19.57;97165.56;5074794;28;20405;-85
2022/04/24 03:49:36;;;;;;;8.20;5.40;;;;;;;26.93;18.79;97159.22;5074770;28;20125;-85
2022/04/24 03:52:03;;;;;;;8.70;5.70;;;;;;;26.73;18.87;97159.72;5074978;28;20041;-84
2022/04/24 03:54:29;;;;;;;8.48;4.90;;;;;;;26.88;19.15;97157.84;5075925;28;20402;-83
2022/04/24 03:56:55;;;;;;;7.30;4.80;;;;;;;26.75;18.99;97151.59;5077380;28;20028;-83
2022/04/24 03:59:21;;;;;;;8.55;5.30;;;;;;;26.76;19.02;97164.44;5077997;28;20040;-83
2022/04/24 04:01:47;;;;;;;8.70;5.50;;;;;;;26.77;19.04;97163.19;5081772;28;20028;-84
2022/04/24 04:04:13;;;;;;;9.65;6.07;;;;;;;26.77;19.41;97160.38;5078780;28;20043;-84
2022/04/24 04:06:39;;;;;;;7.63;4.97;;;;;;;26.71;19.42;97154.59;5079676;28;20040;-85
2022/04/24 04:09:05;;;;;;;7.65;5.05;;;;;;;26.66;19.97;97152.41;5075791;28;20032;-85
2022/04/24 04:11:32;;;;;;;6.80;4.72;;;;;;;26.64;20.20;97151.31;5076572;28;20032;-84
2022/04/24 04:13:58;;;;;;;7.53;4.75;;;;;;;27.02;19.56;97148.72;5079157;28;20127;-85
2022/04/24 04:16:25;;;;;;;8.85;5.50;;;;;;;27.01;19.97;97149.94;5077191;28;20027;-84
2022/04/24 04:18:51;;;;;;;7.97;5.20;;;;;;;26.73;19.79;97159.72;5078049;28;20032;-84
2022/04/24 04:21:17;;;;;;;7.53;4.40;;;;;;;26.78;20.07;97155.50;5076967;28;20036;-83
2022/04/24 04:23:43;;;;;;;9.60;5.72;;;;;;;26.78;19.90;97153.50;5079011;28;20032;-83
2022/04/24 04:26:09;;;;;;;8.70;4.85;;;;;;;26.49;20.30;97148.38;5078048;28;20548;-84
2022/04/24 04:28:35;;;;;;;9.82;5.07;;;;;;;26.26;20.96;97146.22;5075576;28;20075;-84
2022/04/24 04:31:02;;;;;;;7.72;4.93;;;;;;;26.19;20.81;97145.75;5073613;28;20158;-84
2022/04/24 04:33:28;;;;;;;7.90;5.07;;;;;;;26.13;21.23;97144.84;5078022;28;20025;-83
2022/04/24 04:35:54;;;;;;;6.35;4.47;;;;;;;26.04;21.47;97145.59;5074678;28;20059;-85
2022/04/24 04:38:20;;;;;;;7.05;4.53;;;;;;;25.96;21.72;97147.94;5077953;28;20478;-85
2022/04/24 04:40:47;;;;;;;6.65;4.25;;;;;;;25.98;21.53;97142.63;5070364;28;20088;-85
2022/04/24 04:43:13;;;;;;;5.05;3.72;;;;;;;26.20;21.64;97145.31;5075314;28;20036;-85
2022/04/24 04:45:39;;;;;;;7.82;4.38;;;;;;;26.33;21.43;97150.75;5079333;28;20025;-84
2022/04/24 04:48:05;;;;;;;4.95;3.90;;;;;;;25.95;21.81;97140.75;5077408;28;20101;-84
2022/04/24 04:50:32;;;;;;;8.75;5.82;;;;;;;24.62;23.94;97128.22;5077037;28;20032;-84
2022/04/24 04:52:58;;;;;;;8.35;5.05;;;;;;;23.91;24.85;97124.50;5074578;28;20040;-84
2022/04/24 04:55:24;;;;;;;7.88;4.30;;;;;;;24.70;24.11;97112.66;5072682;28;20085;-83
2022/04/24 04:57:50;;;;;;;5.05;4.00;;;;;;;25.45;22.97;97113.25;5073313;28;20032;-83
2022/04/24 05:00:17;;;;;;;4.57;3.17;;;;;;;26.46;21.75;97124.00;5075829;28;20051;-84
2022/04/24 05:02:43;;;;;;;7.38;4.70;;;;;;;27.18;21.28;97133.44;5073030;28;20020;-85
2022/04/24 05:05:09;;;;;;;6.68;4.60;;;;;;;27.17;20.76;97129.03;5075286;28;20120;-86
2022/04/24 05:07:37;;;;;;;7.38;5.68;;;;;;;26.11;21.76;97134.06;5075480;28;20446;-85
2022/04/24 05:10:04;;;;;;;8.75;5.47;;;;;;;25.76;22.53;97132.81;5075756;28;20035;-85
2022/04/24 05:12:30;;;;;;;6.22;4.40;;;;;;;25.79;22.72;97129.81;5072122;28;20047;-85
2022/04/24 05:15:12;;;;;;;6.05;4.32;;;;;;;26.21;22.12;97127.16;5071778;28;20032;-84
2022/04/24 05:17:39;;;;;;;6.28;4.03;;;;;;;26.60;21.72;97131.78;5076730;28;20040;-85
2022/04/24 05:20:06;;;;;;;6.00;3.90;;;;;;;27.13;21.15;97134.09;5076068;28;20029;-84
2022/04/24 05:22:33;;;;;;;8.45;5.28;;;;;;;26.71;21.67;97140.50;5072878;28;20110;-85
2022/04/24 05:24:59;;;;;;;6.28;3.97;;;;;;;26.35;21.97;97132.13;5071180;28;20032;-85
2022/04/24 05:27:26;;;;;;;7.78;4.80;;;;;;;26.32;21.97;97135.91;5073770;28;20027;-84
2022/04/24 05:29:52;;;;;;;6.70;4.68;;;;;;;26.25;22.25;97138.25;5071928;28;20037;-84
2022/04/24 05:32:18;;;;;;;6.28;4.40;;;;;;;26.29;22.12;97134.03;5073855;28;20379;-84
2022/04/24 05:34:44;;;;;;;8.48;4.80;;;;;;;26.47;22.17;97139.63;5071495;28;20029;-84
2022/04/24 05:37:11;;;;;;;5.50;3.88;;;;;;;26.77;21.89;97139.88;5074231;28;20044;-84
2022/04/24 05:39:37;;;;;;;5.78;4.13;;;;;;;27.04;21.48;97137.75;5079109;28;20115;-84
2022/04/24 05:42:03;;;;;;;8.93;5.10;;;;;;;27.04;21.22;97134.91;5071110;28;20040;-84
2022/04/24 05:44:30;;;;;;;6.65;4.75;;;;;;;26.84;21.65;97133.91;5074702;28;20035;-84
2022/04/24 05:46:56;;;;;;;7.57;5.20;;;;;;;26.80;21.46;97145.34;5072698;28;20058;-82
2022/04/24 05:49:22;;;;;;;6.95;4.57;;;;;;;26.76;22.09;97129.88;5066901;28;20063;-83
2022/04/24 05:51:48;;;;;;;7.95;5.63;;;;;;;26.52;22.03;97135.38;5066661;28;20067;-82
2022/04/24 05:54:15;;;;;;;7.68;4.53;;;;;;;26.44;22.54;97125.72;5075204;28;20512;-83
2022/04/24 05:56:41;;;;;;;8.75;5.57;;;;;;;26.16;22.60;97127.03;5071631;28;20093;-84
2022/04/24 05:59:10;;;;;;;9.15;5.90;;;;;;;26.32;22.72;97115.44;5070350;28;20035;-83
2022/04/24 06:01:36;;;;;;;9.60;6.32;;;;;;;25.99;22.79;97106.84;5073689;28;20054;-82
2022/04/24 06:04:03;;;;;;;11.13;6.78;;;;;;;25.65;23.13;97107.19;5073863;28;20060;-82
2022/04/24 06:06:31;;;;;;;7.03;4.80;;;;;;;26.14;23.13;97102.16;5075426;28;20040;-82
2022/04/24 06:08:57;;;;;;;6.13;5.13;;;;;;;26.30;23.10;97092.59;5073940;28;20028;-83
2022/04/24 06:11:23;;;;;;;10.93;7.65;;;;;;;26.06;23.40;97095.28;5075908;28;20064;-84
2022/04/24 06:13:49;;;;;;;6.70;4.63;;;;;;;26.16;23.21;97093.25;5074321;28;20482;-84
2022/04/24 06:16:16;;;;;;;9.48;7.30;;;;;;;26.23;23.08;97095.75;5077322;28;20027;-84
2022/04/24 06:18:42;;;;;;;9.07;6.00;;;;;;;26.60;23.12;97081.09;5080033;28;20036;-84
2022/04/24 06:21:08;;;;;;;7.55;4.78;;;;;;;27.12;22.68;97088.22;5072966;28;20059;-86
2022/04/24 06:23:34;;;;;;;8.60;5.78;;;;;;;27.38;22.13;97091.38;5078578;28;20029;-86
2022/04/24 06:26:00;;;;;;;10.00;5.57;;;;;;;27.83;21.88;97095.88;5079383;28;20036;-86
2022/04/24 06:28:26;;;;;;;9.90;6.22;;;;;;;27.65;21.37;97087.56;5064136;28;20093;-86
2022/04/24 06:30:55;;;;;;;7.07;5.57;;;;;;;26.86;22.71;97075.06;5074042;28;20047;-86
2022/04/24 06:33:21;;;;;;;8.90;6.72;;;;;;;25.50;24.43;97089.34;5076386;28;20031;-86
2022/04/24 06:35:47;;;;;;;11.85;6.80;;;;;;;24.71;24.70;97080.53;5076587;28;20054;-85
2022/04/24 06:38:13;;;;;;;10.52;6.90;;;;;;;25.49;24.63;97071.72;5073088;28;20043;-85
2022/04/24 06:40:39;;;;;;;7.50;5.68;;;;;;;26.56;23.49;97082.50;5074077;28;20556;-83
2022/04/24 06:43:07;;;;;;;7.13;4.60;;;;;;;27.42;22.86;97077.88;5075552;28;20029;-85
2022/04/24 06:45:35;;;;;;;6.53;4.90;;;;;;;28.37;21.73;97083.31;5072729;28;20028;-86
2022/04/24 06:48:15;;;;;;;6.30;4.88;;;;;;;29.07;20.83;97085.00;5073835;28;20040;-85
2022/04/24 06:50:46;;;;;;;8.77;5.88;;;;;;;28.90;20.47;97066.22;5074961;28;20386;-85
2022/04/24 06:53:17;;;;;;;11.60;7.72;;;;;;;27.52;21.84;97070.91;5071152;28;20046;-85
2022/04/24 06:55:45;;;;;;;7.70;5.43;;;;;;;27.69;22.49;97071.25;5072629;28;20025;-87
2022/04/24 06:58:13;;;;;;;7.97;5.47;;;;;;;28.39;21.58;97081.56;5079562;28;20102;-85
2022/04/24 07:00:42;;;;;;;6.78;4.85;;;;;;;28.86;21.29;97072.09;5078782;28;20042;-84
2022/04/24 07:03:10;;;;;;;7.60;4.55;;;;;;;29.28;20.90;97078.13;5081700;28;20051;-85
2022/04/24 07:05:36;;;;;;;9.35;5.60;;;;;;;29.19;20.72;97074.66;5077255;28;20047;-84
2022/04/24 07:08:02;;;;;;;9.30;6.55;;;;;;;28.23;21.51;97075.63;5081510;28;20042;-85
2022/04/24 07:10:29;;;;;;;9.65;7.13;;;;;;;27.52;22.56;97070.91;5076868;28;20468;-85
2022/04/24 07:12:55;;;;;;;8.15;5.53;;;;;;;27.49;22.40;97069.06;5076845;28;20157;-85
2022/04/24 07:15:24;;;;;;;9.55;6.70;;;;;;;27.31;22.65;97064.28;5080578;28;20036;-85
2022/04/24 07:17:56;;;;;;;7.38;5.90;;;;;;;27.20;22.92;97063.28;5078008;28;20077;-85
2022/04/24 07:20:22;;;;;;;6.30;5.03;;;;;;;27.66;22.89;97064.53;5068390;28;20378;-86
2022/04/24 07:22:50;;;;;;;6.90;6.20;;;;;;;27.50;22.87;97059.34;5083505;28;20028;-86
2022/04/24 07:25:24;;;;;;;5.50;4.55;;;;;;;27.55;22.98;97064.31;5080320;28;20111;-86
2022/04/24 07:27:51;;;;;;;5.40;4.22;;;;;;;27.99;22.55;97070.84;5077764;28;20039;-86
2022/04/24 07:30:18;;;;;;;5.88;4.15;;;;;;;28.55;21.74;97058.47;5079885;28;20036;-86
2022/04/24 07:32:47;;;;;;;7.28;5.40;;;;;;;28.58;21.67;97054.69;5077539;28;20025;-86
2022/04/24 07:35:15;;;;;;;6.07;5.20;;;;;;;28.10;22.23;97053.31;5076572;28;20032;-88
2022/04/24 07:37:42;;;;;;;5.88;4.70;;;;;;;27.65;22.72;97048.88;5081898;28;20548;-87
2022/04/24 07:40:11;;;;;;;8.23;6.45;;;;;;;27.61;22.89;97055.97;5081581;28;20064;-86
2022/04/24 07:42:51;;;;;;;7.32;4.40;;;;;;;28.26;22.52;97050.03;5079255;28;20111;-84
2022/04/24 07:45:25;;;;;;;12.50;7.90;;;;;;;28.48;21.94;97050.41;5078017;28;20029;-85
2022/04/24 07:47:53;;;;;;;7.10;4.97;;;;;;;28.41;22.69;97050.00;5081794;28;20025;-85
2022/04/24 07:50:25;;;;;;;6.15;4.75;;;;;;;28.60;22.18;97038.03;5079551;28;20127;-87
2022/04/24 07:52:54;;;;;;;5.45;4.40;;;;;;;28.22;22.34;97043.78;5079592;28;20551;-84
2022/04/24 07:55:24;;;;;;;6.78;4.82;;;;;;;28.47;22.34;97050.91;5077696;28;20047;-83
2022/04/24 07:57:54;;;;;;;7.13;4.55;;;;;;;29.12;21.53;97047.56;5075450;28;20402;-85
2022/04/24 08:00:22;;;;;;;6.95;5.10;;;;;;;28.72;21.73;97041.81;5076414;28;20041;-82
2022/04/24 08:02:57;;;;;;;7.97;4.95;;;;;;;28.42;22.12;97051.56;5078671;28;20032;-83
2022/04/24 08:05:24;;;;;;;7.80;5.05;;;;;;;28.51;21.92;97040.16;5078546;28;20068;-82
2022/04/24 08:07:50;;;;;;;6.03;4.53;;;;;;;28.61;22.18;97047.31;5075526;28;20032;-82
2022/04/24 08:10:16;;;;;;;6.22;4.65;;;;;;;29.09;21.73;97042.09;5073219;28;20043;-82
2022/04/24 08:12:43;;;;;;;5.65;4.35;;;;;;;29.44;21.17;97037.19;5078639;28;20779;-82
2022/04/24 08:15:09;;;;;;;4.95;3.85;;;;;;;29.59;20.93;97042.78;5076504;28;20079;-82
2022/04/24 08:17:35;;;;;;;4.45;3.60;;;;;;;29.58;20.84;97044.03;5075875;28;20036;-81
2022/04/24 08:20:02;;;;;;;6.53;3.58;;;;;;;29.58;21.03;97039.16;5075032;28;20486;-83
2022/04/24 08:22:46;;;;;;;4.35;3.65;;;;;;;29.77;20.67;97046.09;5080941;28;20067;-82
2022/04/24 08:25:15;;;;;;;7.10;5.05;;;;;;;29.96;20.69;97040.91;5079028;28;20078;-81
2022/04/24 08:27:42;;;;;;;8.85;6.45;;;;;;;29.62;20.81;97038.94;5076084;28;20044;-81
2022/04/24 08:30:10;;;;;;;6.78;5.18;;;;;;;29.07;21.83;97044.63;5076906;28;20516;-81
2022/04/24 08:32:37;;;;;;;5.88;4.55;;;;;;;29.02;21.75;97037.63;5070626;28;20630;-81
2022/04/24 08:35:05;;;;;;;5.55;4.97;;;;;;;28.89;21.78;97042.84;5072336;28;20556;-82
2022/04/24 08:37:32;;;;;;;6.97;5.07;;;;;;;28.72;22.18;97050.28;5075408;28;20031;-80
2022/04/24 08:39:58;;;;;;;4.82;4.15;;;;;;;28.87;22.07;97045.38;5076633;28;20047;-80
2022/04/24 08:42:26;;;;;;;6.00;4.72;;;;;;;29.23;21.92;97042.06;5074314;28;20154;-81
2022/04/24 08:44:56;;;;;;;7.15;5.35;;;;;;;28.89;22.13;97033.59;5076347;28;20036;-81
2022/04/24 08:47:24;;;;;;;7.10;5.47;;;;;;;28.64;22.17;97040.66;5074039;28;20024;-81
2022/04/24 08:49:54;;;;;;;6.22;4.85;;;;;;;28.40;22.60;97034.34;5076695;28;20025;-81
2022/04/24 08:52:21;;;;;;;7.72;6.03;;;;;;;28.44;22.90;97040.56;5073449;28;20032;-80
2022/04/24 08:54:48;;;;;;;6.70;5.05;;;;;;;28.53;22.75;97037.63;5072735;28;20111;-80
2022/04/24 08:57:14;;;;;;;8.98;6.47;;;;;;;28.37;22.70;97036.09;5075794;28;20024;-80
2022/04/24 08:59:41;;;;;;;6.70;4.72;;;;;;;28.25;22.89;97042.03;5075986;28;20040;-80
2022/04/24 09:02:09;;;;;;;7.40;5.82;;;;;;;28.24;23.28;97032.03;5075292;28;20023;-80
2022/04/24 09:04:39;;;;;;;8.70;6.45;;;;;;;28.10;23.18;97039.22;5077545;28;20035;-81
2022/04/24 09:07:07;;;;;;;7.28;5.30;;;;;;;28.53;22.70;97029.16;5074998;28;20063;-80
2022/04/24 09:09:42;;;;;;;7.53;5.85;;;;;;;28.56;22.51;97039.50;5077146;28;20051;-82
2022/04/24 09:12:23;;;;;;;10.75;7.72;;;;;;;28.01;23.10;97033.66;5079859;28;20054;-81
2022/04/24 09:14:54;;;;;;;;;;;;;;;28.00;23.62;97038.56;5076856;28;20508;-81
2022/04/24 09:17:25;;;;;;;10.95;7.78;;;;;;;27.82;23.67;97027.38;5072287;28;19916;-81
2022/04/24 09:19:51;;;;;;;;;;;;;;;27.66;24.11;97027.06;5074955;28;20040;-80
2022/04/24 09:22:18;;;;;;;14.18;8.45;;;;;;;27.73;24.15;97019.03;5071971;28;19939;-80
2022/04/24 09:24:52;;;;;;;7.43;5.78;;;;;;;27.98;23.89;97018.44;5076353;28;20035;-80
2022/04/24 09:27:29;;;;;;;8.65;6.70;;;;;;;28.56;23.07;97014.84;5074755;28;20024;-81
2022/04/24 09:30:14;;;;;;;12.70;9.40;;;;;;;28.07;23.58;97020.44;5078721;28;20206;-81
2022/04/24 09:32:52;;;;;;;10.88;7.28;;;;;;;28.08;24.01;97017.13;5075679;28;20500;-82
2022/04/24 09:35:26;;;;;;;10.07;7.28;;;;;;;27.82;24.12;97021.00;5076012;28;20092;-81
2022/04/24 09:38:04;;;;;;;9.30;7.45;;;;;;;27.95;23.93;97015.84;5074674;28;20029;-82
2022/04/24 09:40:47;;;;;;;9.70;8.18;;;;;;;27.61;24.46;97016.50;5072154;28;20073;-82
2022/04/24 09:43:15;;;;;;;9.50;7.55;;;;;;;27.82;24.30;97016.09;5074131;28;20036;-81
2022/04/24 09:45:45;;;;;;;13.25;9.48;;;;;;;27.21;24.99;97008.47;5077027;28;20025;-82
2022/04/24 09:48:16;;;;;;;12.45;8.82;;;;;;;27.51;24.83;97004.50;5076929;28;20074;-81
2022/04/24 09:50:42;;;;;;;10.63;7.40;;;;;;;27.71;24.51;97013.09;5077553;28;20124;-81
2022/04/24 09:53:14;;;;;;;10.20;7.13;;;;;;;28.37;23.88;97012.72;5082031;28;20036;-81
2022/04/24 09:55:44;;;;;;;8.90;6.68;;;;;;;28.72;23.63;96997.41;5079199;28;20486;-82
2022/04/24 09:58:13;;;;;;;9.88;7.30;;;;;;;28.78;23.68;97005.94;5073999;28;20504;-82
2022/04/24 10:00:41;;;;;;;9.32;6.68;;;;;;;28.77;23.72;96995.13;5072544;28;20481;-82
2022/04/24 10:03:14;;;;;;;13.70;9.63;;;;;;;28.47;23.96;96989.53;5078920;28;20027;-81
2022/04/24 10:05:43;;;;;;;10.65;7.55;;;;;;;28.56;24.27;96994.28;5076557;28;20106;-81
2022/04/24 10:08:09;;;;;;;9.30;7.30;;;;;;;29.15;24.30;96995.66;5076721;28;20086;-81
2022/04/24 10:10:36;;;;;;;9.93;7.25;;;;;;;29.66;23.72;96989.38;5081991;28;20106;-80
2022/04/24 10:13:07;;;;;;;8.35;7.20;;;;;;;30.03;23.66;96990.28;5080920;28;20036;-81
2022/04/24 10:15:36;;;;;;;7.88;6.25;;;;;;;30.31;23.67;96987.69;5078211;28;20061;-80
2022/04/24 10:18:20;;;;;;;8.27;5.72;;;;;;;30.16;23.56;96975.72;5075026;28;20074;-82
2022/04/24 10:21:16;;;;;;;7.88;5.30;;;;;;;30.34;23.18;96975.38;5081068;28;20032;-80
2022/04/24 10:23:42;;;;;;;7.60;5.32;;;;;;;28.38;25.40;96971.94;5078763;28;20028;-82
2022/04/24 10:26:20;;;;;;;6.57;5.40;;;;;;;26.52;27.42;96972.09;5075801;28;20197;-81
2022/04/24 10:28:47;;;;;;;6.78;4.68;;;;;;;27.92;27.43;96969.63;5073294;28;20094;-81
2022/04/24 10:31:15;;;;;;;5.40;4.00;;;;;;;29.40;24.99;96971.59;5076757;28;20493;-82
2022/04/24 10:33:52;;;;;;;6.72;4.82;;;;;;;30.08;24.78;96966.13;5079394;28;20020;-82
2022/04/24 10:36:19;;;;;;;6.93;4.72;;;;;;;30.20;23.79;96959.25;5074789;28;20396;-81
2022/04/24 10:38:57;;;;;;;4.32;3.67;;;;;;;30.71;23.40;96947.78;5076930;28;20040;-81
2022/04/24 10:41:28;;;;;;;6.78;4.88;;;;;;;30.80;23.25;96946.06;5075041;28;20026;-82
2022/04/24 10:44:08;;;;;;;4.13;3.60;;;;;;;30.75;23.32;96933.41;5073345;28;20031;-83
2022/04/24 10:46:42;;;;;;;5.32;3.35;;;;;;;29.61;25.57;96939.16;5069842;28;20032;-82
2022/04/24 10:49:16;;;;;;;5.13;4.40;;;;;;;29.38;24.83;96929.66;5068494;28;20024;-81
2022/04/24 10:51:43;;;;;;;3.08;2.78;;;;;;;30.21;23.51;96915.50;5074947;28;20044;-80
2022/04/24 10:54:12;;;;;;;3.03;2.70;;;;;;;29.55;23.99;96924.16;5071326;28;20077;-81
2022/04/24 10:56:43;;;;;;;3.20;2.80;;;;;;;29.48;24.46;96924.59;5072167;28;20105;-81
2022/04/24 10:59:15;;;;;;;2.88;2.67;;;;;;;30.31;24.23;96918.94;5072646;28;20043;-80
2022/04/24 11:01:44;;;;;;;3.28;2.50;;;;;;;30.53;23.64;96907.75;5076897;28;20031;-81
2022/04/24 11:04:12;;;;;;;3.50;3.08;;;;;;;30.42;24.02;96900.00;5071877;28;20032;-81
2022/04/24 11:06:39;;;;;;;3.38;2.65;;;;;;;29.98;24.06;96905.31;5076780;28;20043;-81
2022/04/24 11:09:12;;;;;;;2.55;2.33;;;;;;;30.92;23.46;96899.50;5071725;28;20037;-81
2022/04/24 11:12:01;;;;;;;2.50;2.30;;;;;;;30.83;23.71;96891.19;5075049;28;20028;-80
2022/04/24 11:14:28;;;;;;;3.58;2.30;;;;;;;31.20;22.96;96889.03;5077991;28;20390;-80
2022/04/24 11:16:59;;;;;;;3.20;2.65;;;;;;;31.26;23.11;96882.09;5072779;28;20029;-81
2022/04/24 11:19:35;;;;;;;2.58;2.15;;;;;;;30.87;22.63;96897.38;5071913;28;20044;-81
2022/04/24 11:22:07;;;;;;;2.47;2.05;;;;;;;31.35;22.78;96895.25;5069905;28;20041;-80
2022/04/24 11:24:36;;;;;;;2.40;1.95;;;;;;;31.55;21.93;96889.41;5072550;28;20083;-81
2022/04/24 11:27:04;;;;;;;2.53;1.58;;;;;;;32.00;21.70;96891.00;5070394;28;20043;-81
2022/04/24 11:29:31;;;;;;;1.85;1.20;;;;;;;31.76;22.47;96893.56;5072640;28;20048;-80
2022/04/24 11:31:57;;;;;;;1.60;1.35;;;;;;;32.11;21.79;96892.31;5074304;28;20063;-80
2022/04/24 11:34:25;;;;;;;2.38;1.90;;;;;;;31.82;21.88;96890.72;5068945;28;20032;-81
2022/04/24 11:36:56;;;;;;;1.42;1.33;;;;;;;31.39;22.79;96887.28;5079005;28;20107;-81